Time;durP1;ratioP1;P1;durP2;ratioP2;P2;SDS_P1;SDS_P2;PMS_P1;PMS_P2;Temp;Humidity;BMP_temperature;BMP_pressure;BME280_temperature;BME280_humidity;BME280_pressure;Samples;Min_cycle;Max_cycle;Signal;HPM_P1;HPM_P2
2022/08/14 00:00:39;;;;;;;3.72;1.95;;;26.10;46.80;;;;;;5018438;28;87710;-85
2022/08/14 00:03:05;;;;;;;2.75;1.85;;;26.10;46.90;;;;;;5019240;28;86532;-85
2022/08/14 00:05:30;;;;;;;2.25;1.65;;;26.10;46.90;;;;;;5018210;28;87480;-85
2022/08/14 00:07:56;;;;;;;3.28;1.70;;;26.10;47.10;;;;;;5018907;28;87551;-86
2022/08/14 00:10:22;;;;;;;1.75;1.55;;;26.10;47.00;;;;;;5016842;28;92288;-86
2022/08/14 00:12:54;;;;;;;3.03;1.90;;;26.10;47.10;;;;;;5018234;28;88884;-85
2022/08/14 00:15:30;;;;;;;1.92;1.73;;;26.10;47.00;;;;;;5018239;28;86970;-86
2022/08/14 00:17:56;;;;;;;3.20;2.03;;;26.00;47.00;;;;;;5032847;28;90096;-85
2022/08/14 00:20:25;;;;;;;3.83;1.85;;;26.00;47.10;;;;;;5018622;28;89102;-85
2022/08/14 00:22:51;;;;;;;2.20;1.85;;;26.10;47.20;;;;;;5017411;28;87894;-86
2022/08/14 00:25:16;;;;;;;2.50;1.75;;;26.00;46.90;;;;;;5018983;28;86780;-86
2022/08/14 00:27:42;;;;;;;3.45;2.10;;;26.00;47.20;;;;;;5018918;28;87110;-85
2022/08/14 00:30:10;;;;;;;2.83;1.70;;;26.10;47.20;;;;;;5018760;28;88647;-86
2022/08/14 00:32:36;;;;;;;3.70;2.00;;;26.10;47.20;;;;;;5018368;28;87477;-85
2022/08/14 00:35:04;;;;;;;2.08;1.80;;;26.00;47.10;;;;;;5015394;28;87912;-85
2022/08/14 00:37:30;;;;;;;2.87;2.33;;;26.00;47.20;;;;;;5016454;28;88991;-86
2022/08/14 00:39:56;;;;;;;2.40;1.77;;;26.00;47.40;;;;;;5017942;28;89146;-85
2022/08/14 00:42:22;;;;;;;2.75;1.80;;;26.00;47.40;;;;;;5019301;28;88743;-86
2022/08/14 00:44:48;;;;;;;3.88;2.08;;;26.00;47.40;;;;;;5018787;28;87127;-86
2022/08/14 00:47:15;;;;;;;3.33;1.48;;;26.00;47.40;;;;;;5017466;28;87494;-87
2022/08/14 00:49:41;;;;;;;2.88;1.60;;;26.00;47.50;;;;;;5018395;28;88832;-85
2022/08/14 00:52:07;;;;;;;2.00;1.73;;;26.00;47.40;;;;;;5018115;28;89140;-85
2022/08/14 00:54:36;;;;;;;2.08;1.60;;;26.00;47.60;;;;;;5021753;28;86901;-86
2022/08/14 00:57:02;;;;;;;3.33;1.80;;;26.00;47.60;;;;;;5020712;28;87866;-86
2022/08/14 00:59:28;;;;;;;1.80;1.60;;;26.00;47.60;;;;;;5020648;28;89175;-85
2022/08/14 01:01:56;;;;;;;1.80;1.55;;;26.00;47.60;;;;;;5021589;28;89164;-85
2022/08/14 01:04:23;;;;;;;2.88;1.90;;;26.00;47.60;;;;;;5021229;28;88284;-86
2022/08/14 01:06:51;;;;;;;2.28;1.80;;;26.00;47.70;;;;;;5021800;28;87089;-86
2022/08/14 01:09:21;;;;;;;3.00;2.00;;;26.00;47.70;;;;;;5021108;28;87679;-86
2022/08/14 01:11:49;;;;;;;2.58;1.95;;;26.00;47.70;;;;;;5021012;28;86998;-85
2022/08/14 01:14:19;;;;;;;1.50;1.35;;;26.00;48.00;;;;;;5020856;28;87279;-85
2022/08/14 01:16:48;;;;;;;2.33;1.73;;;26.00;47.70;;;;;;5020100;28;90403;-86
2022/08/14 01:22:00;;;;;;;2.05;1.73;;;26.00;48.00;;;;;;5021782;28;87211;-86
2022/08/14 01:24:26;;;;;;;1.92;1.50;;;26.00;47.90;;;;;;5020728;28;87817;-86
2022/08/14 01:26:52;;;;;;;2.25;1.50;;;26.00;48.00;;;;;;5019547;28;88867;-85
2022/08/14 01:29:18;;;;;;;2.53;1.60;;;26.00;48.00;;;;;;5020700;28;88547;-85
2022/08/14 01:31:54;;;;;;;1.75;1.65;;;26.00;48.70;;;;;;5019454;28;91370;-85
2022/08/14 01:34:22;;;;;;;1.60;1.50;;;25.90;48.00;;;;;;5021314;28;86937;-86
2022/08/14 01:36:48;;;;;;;2.37;2.00;;;26.00;48.10;;;;;;5019613;28;90478;-85
2022/08/14 01:39:16;;;;;;;2.38;1.90;;;25.90;48.00;;;;;;5020057;28;87976;-86
2022/08/14 01:41:57;;;;;;;1.90;1.70;;;25.90;48.20;;;;;;5021319;28;89355;-85
2022/08/14 01:44:27;;;;;;;3.08;2.13;;;26.00;48.30;;;;;;5020819;28;87207;-86
2022/08/14 01:46:54;;;;;;;2.60;1.77;;;25.90;48.00;;;;;;5020547;28;87573;-86
2022/08/14 01:49:21;;;;;;;2.13;1.75;;;25.90;48.70;;;;;;5019839;28;89642;-86
2022/08/14 01:51:47;;;;;;;2.60;1.65;;;25.90;48.20;;;;;;5018434;28;91426;-86
2022/08/14 01:54:21;;;;;;;1.92;1.58;;;25.90;48.30;;;;;;5018955;28;87604;-85
2022/08/14 01:56:51;;;;;;;1.90;1.75;;;25.90;48.10;;;;;;5020653;28;87873;-87
2022/08/14 01:59:18;;;;;;;2.38;1.60;;;25.90;48.20;;;;;;5020411;28;88531;-86
2022/08/14 02:01:45;;;;;;;1.90;1.58;;;25.90;48.30;;;;;;5035510;28;90159;-86
2022/08/14 02:04:12;;;;;;;2.03;1.63;;;26.00;48.50;;;;;;5021502;28;87417;-85
2022/08/14 02:06:46;;;;;;;1.90;1.55;;;25.90;48.40;;;;;;5020815;28;86628;-86
2022/08/14 02:09:12;;;;;;;2.47;2.00;;;25.90;48.40;;;;;;5020181;28;88057;-86
2022/08/14 02:11:38;;;;;;;4.43;1.92;;;25.90;48.40;;;;;;5020023;28;88051;-86
2022/08/14 02:14:07;;;;;;;1.77;1.55;;;25.90;48.60;;;;;;5018449;28;87933;-86
2022/08/14 02:16:37;;;;;;;3.15;1.95;;;25.90;48.60;;;;;;5020221;28;87349;-86
2022/08/14 02:19:07;;;;;;;1.92;1.67;;;25.90;48.60;;;;;;5020522;28;88603;-85
2022/08/14 02:21:35;;;;;;;;;;;25.90;48.60;;;;;;5021096;28;87028;-85
2022/08/14 02:24:02;;;;;;;1.95;1.70;;;25.90;48.60;;;;;;5019978;28;87059;-86
2022/08/14 02:26:31;;;;;;;2.28;1.58;;;25.90;48.60;;;;;;5019214;28;90214;-86
2022/08/14 02:29:11;;;;;;;1.50;1.35;;;25.90;48.50;;;;;;5018119;28;91316;-85
2022/08/14 02:31:40;;;;;;;1.80;1.70;;;25.90;48.70;;;;;;5020511;28;88151;-85
2022/08/14 02:34:09;;;;;;;1.77;1.55;;;25.90;48.60;;;;;;5020348;28;87260;-85
2022/08/14 02:36:39;;;;;;;2.35;1.90;;;25.90;48.80;;;;;;5019645;28;87896;-86
2022/08/14 02:39:07;;;;;;;1.50;1.40;;;25.90;48.70;;;;;;5019401;28;89166;-86
2022/08/14 02:41:34;;;;;;;1.90;1.50;;;25.90;48.70;;;;;;5018370;28;91047;-86
2022/08/14 02:44:05;;;;;;;1.63;1.52;;;25.90;48.70;;;;;;5016140;28;86919;-85
2022/08/14 02:46:31;;;;;;;1.63;1.52;;;25.90;48.80;;;;;;5018716;28;87093;-85
2022/08/14 02:48:57;;;;;;;1.90;1.63;;;25.90;48.80;;;;;;5018446;28;88002;-85
2022/08/14 02:51:23;;;;;;;2.13;1.70;;;25.90;48.80;;;;;;5014793;28;89752;-86
2022/08/14 02:53:49;;;;;;;1.75;1.50;;;25.80;48.80;;;;;;5017192;28;86993;-86
2022/08/14 02:56:16;;;;;;;2.10;1.55;;;25.80;48.70;;;;;;5015527;28;89458;-86
2022/08/14 02:58:45;;;;;;;1.65;1.45;;;25.90;48.90;;;;;;5016394;28;88671;-86
2022/08/14 03:01:15;;;;;;;1.95;1.42;;;25.80;48.70;;;;;;5017200;28;90360;-86
2022/08/14 03:03:42;;;;;;;1.98;1.55;;;25.80;48.80;;;;;;5033919;28;88368;-86
2022/08/14 03:06:09;;;;;;;2.42;1.73;;;25.80;48.90;;;;;;5018565;28;87583;-86
2022/08/14 03:08:36;;;;;;;2.15;1.70;;;25.90;48.90;;;;;;5017766;28;90760;-86
2022/08/14 03:11:08;;;;;;;1.73;1.60;;;25.80;48.80;;;;;;5018725;28;88526;-86
2022/08/14 03:13:35;;;;;;;1.85;1.60;;;25.80;48.70;;;;;;5020279;28;86958;-86
2022/08/14 03:16:03;;;;;;;3.10;1.92;;;25.80;48.80;;;;;;5016004;28;90049;-85
2022/08/14 03:18:29;;;;;;;2.10;1.90;;;25.80;48.80;;;;;;5018971;28;88585;-85
2022/08/14 03:20:54;;;;;;;1.65;1.55;;;25.80;48.90;;;;;;5019838;28;87790;-85
2022/08/14 03:23:20;;;;;;;1.73;1.45;;;25.80;49.00;;;;;;5019793;28;87323;-86
2022/08/14 03:25:46;;;;;;;1.75;1.60;;;25.80;48.90;;;;;;5017764;28;90640;-86
2022/08/14 03:28:12;;;;;;;2.40;1.75;;;25.80;49.10;;;;;;5017867;28;89083;-85
2022/08/14 03:30:39;;;;;;;1.88;1.67;;;25.80;49.20;;;;;;5019075;28;89462;-86
2022/08/14 03:33:05;;;;;;;1.60;1.42;;;25.90;49.10;;;;;;5019216;28;87355;-85
2022/08/14 03:35:32;;;;;;;2.38;1.80;;;25.80;49.80;;;;;;5019127;28;87658;-86
2022/08/14 03:38:10;;;;;;;1.67;1.58;;;25.80;49.20;;;;;;5017822;28;87961;-85
2022/08/14 03:40:37;;;;;;;1.70;1.60;;;25.80;49.20;;;;;;5016148;28;91478;-85
2022/08/14 03:43:05;;;;;;;1.60;1.45;;;25.80;49.20;;;;;;5018539;28;86902;-86
2022/08/14 03:45:35;;;;;;;1.52;1.42;;;25.80;49.10;;;;;;5018629;28;87842;-86
2022/08/14 03:48:29;;;;;;;2.15;1.70;;;25.80;49.20;;;;;;5018439;28;88562;-85
2022/08/14 03:50:54;;;;;;;1.75;1.40;;;25.80;49.20;;;;;;5017899;28;88398;-86
2022/08/14 03:53:22;;;;;;;2.03;1.67;;;25.80;49.20;;;;;;5018711;28;87797;-86
2022/08/14 03:55:48;;;;;;;1.40;1.30;;;25.80;49.20;;;;;;5019074;28;86928;-85
2022/08/14 03:58:14;;;;;;;1.85;1.70;;;25.80;49.20;;;;;;5019124;28;88292;-85
2022/08/14 04:00:40;;;;;;;1.85;1.60;;;25.80;49.20;;;;;;5018235;28;88191;-86
2022/08/14 04:03:09;;;;;;;1.85;1.75;;;25.80;49.30;;;;;;5018979;28;87037;-86
2022/08/14 04:05:37;;;;;;;1.63;1.52;;;25.80;49.40;;;;;;5018770;28;87366;-86
2022/08/14 04:08:03;;;;;;;1.80;1.50;;;25.80;49.40;;;;;;5018548;28;88580;-85
2022/08/14 04:10:29;;;;;;;1.95;1.45;;;25.80;49.20;;;;;;5019127;28;88199;-86
2022/08/14 04:12:58;;;;;;;1.83;1.50;;;25.80;49.40;;;;;;5018068;28;87038;-85
2022/08/14 04:15:24;;;;;;;2.08;1.50;;;25.80;49.30;;;;;;5019085;28;86851;-86
2022/08/14 04:17:49;;;;;;;1.70;1.60;;;25.80;49.30;;;;;;5018547;28;89302;-85
2022/08/14 04:20:15;;;;;;;2.10;1.73;;;25.80;49.40;;;;;;5018041;28;89103;-85
2022/08/14 04:22:42;;;;;;;1.70;1.60;;;25.80;49.60;;;;;;5018159;28;87668;-86
2022/08/14 04:25:09;;;;;;;1.73;1.55;;;25.80;49.60;;;;;;5017844;28;86871;-86
2022/08/14 04:27:35;;;;;;;2.00;1.50;;;25.80;49.50;;;;;;5034367;27;91184;-85
2022/08/14 04:30:04;;;;;;;1.70;1.60;;;25.80;49.70;;;;;;5021538;28;88070;-85
2022/08/14 04:32:33;;;;;;;1.87;1.40;;;25.70;49.60;;;;;;5022268;28;87344;-85
2022/08/14 04:35:00;;;;;;;1.58;1.48;;;25.80;49.70;;;;;;5022102;28;86206;-85
2022/08/14 04:45:39;;;;;;;1.65;1.55;;;25.70;49.60;;;;;;5021950;28;86862;-85
2022/08/14 04:48:13;;;;;;;1.95;1.58;;;25.70;49.70;;;;;;5020864;28;89522;-85
2022/08/14 04:50:50;;;;;;;1.75;1.48;;;25.70;49.40;;;;;;5038294;28;89994;-85
2022/08/14 04:53:20;;;;;;;1.88;1.77;;;25.80;49.70;;;;;;5039995;28;87257;-86
2022/08/14 04:55:47;;;;;;;1.77;1.50;;;25.70;49.60;;;;;;5039082;28;87691;-85
2022/08/14 04:58:27;;;;;;;1.70;1.60;;;25.70;49.70;;;;;;5038685;28;88845;-86
2022/08/14 05:00:55;;;;;;;2.25;1.67;;;25.70;49.50;;;;;;5038101;28;87382;-85
2022/08/14 05:03:22;;;;;;;2.00;1.48;;;25.70;49.50;;;;;;5031364;28;87533;-86
2022/08/14 05:05:54;;;;;;;1.60;1.50;;;25.70;49.60;;;;;;5038501;28;89051;-85
2022/08/14 05:08:19;;;;;;;1.60;1.50;;;25.70;49.40;;;;;;5038261;28;91112;-85
2022/08/14 05:10:51;;;;;;;1.50;1.40;;;25.80;50.00;;;;;;5021161;28;91068;-86
2022/08/14 05:13:22;;;;;;;1.70;1.60;;;25.80;49.40;;;;;;5022044;28;87562;-86
2022/08/14 05:15:48;;;;;;;2.03;1.50;;;25.80;49.50;;;;;;5038617;28;87608;-86
2022/08/14 05:18:22;;;;;;;1.83;1.45;;;25.80;49.50;;;;;;5021392;28;90317;-86
2022/08/14 05:20:50;;;;;;;1.42;1.33;;;25.90;49.80;;;;;;5035262;28;87810;-86
2022/08/14 05:23:19;;;;;;;2.58;1.83;;;25.80;49.60;;;;;;5021929;28;87571;-86
2022/08/14 05:25:50;;;;;;;3.25;1.98;;;25.80;49.50;;;;;;5022072;28;87123;-85
2022/08/14 05:28:18;;;;;;;1.70;1.60;;;25.90;49.70;;;;;;5018583;28;91115;-86
2022/08/14 05:30:52;;;;;;;1.60;1.48;;;25.90;49.50;;;;;;5019441;28;90479;-86
2022/08/14 05:33:19;;;;;;;1.60;1.30;;;25.90;49.40;;;;;;5020467;28;88744;-85
2022/08/14 05:35:47;;;;;;;2.00;1.80;;;25.90;49.50;;;;;;5035875;28;89093;-86
2022/08/14 05:38:18;;;;;;;1.70;1.60;;;25.90;49.50;;;;;;5020892;28;87893;-86
2022/08/14 05:40:45;;;;;;;1.75;1.60;;;25.90;49.50;;;;;;5019871;28;86963;-86
2022/08/14 05:43:12;;;;;;;1.88;1.60;;;25.90;49.50;;;;;;5020785;28;87315;-86
2022/08/14 05:45:39;;;;;;;2.33;1.63;;;25.90;49.50;;;;;;5020682;28;86975;-86
2022/08/14 05:48:05;;;;;;;1.60;1.40;;;25.90;49.60;;;;;;5020590;28;88144;-86
2022/08/14 05:50:32;;;;;;;1.45;1.35;;;25.90;49.50;;;;;;5020994;28;87122;-86
2022/08/14 05:52:58;;;;;;;1.42;1.33;;;26.00;49.60;;;;;;5020803;28;87223;-85
2022/08/14 05:55:24;;;;;;;1.40;1.27;;;25.90;49.50;;;;;;5020729;28;87477;-86
2022/08/14 05:57:55;;;;;;;1.90;1.50;;;25.90;49.60;;;;;;5020548;28;89569;-86
2022/08/14 06:00:27;;;;;;;2.15;1.67;;;25.90;49.50;;;;;;5020047;28;88305;-86
2022/08/14 06:02:55;;;;;;;1.63;1.40;;;25.90;49.50;;;;;;5021064;28;87255;-86
2022/08/14 06:05:23;;;;;;;1.65;1.30;;;26.00;49.60;;;;;;5020326;28;87248;-86
2022/08/14 06:07:49;;;;;;;1.73;1.60;;;26.00;49.50;;;;;;5020356;28;87711;-86
2022/08/14 06:10:15;;;;;;;1.30;1.20;;;26.00;49.40;;;;;;5018816;28;90995;-85
2022/08/14 06:12:41;;;;;;;1.60;1.50;;;26.00;49.50;;;;;;5019633;28;86987;-86
2022/08/14 06:15:08;;;;;;;1.50;1.40;;;26.10;49.60;;;;;;5021264;28;86298;-86
2022/08/14 06:17:50;;;;;;;1.88;1.45;;;26.10;49.30;;;;;;5020633;28;88370;-86
2022/08/14 06:20:17;;;;;;;1.73;1.63;;;26.10;49.40;;;;;;5020371;28;88332;-86
2022/08/14 06:22:46;;;;;;;3.58;1.58;;;26.10;49.40;;;;;;5020088;28;88460;-86
2022/08/14 06:25:13;;;;;;;1.45;1.35;;;26.10;49.40;;;;;;5019608;28;86925;-86
2022/08/14 06:27:43;;;;;;;1.55;1.42;;;26.10;49.40;;;;;;5019993;28;91612;-85
2022/08/14 06:30:19;;;;;;;1.30;1.20;;;26.20;49.60;;;;;;5035269;28;89490;-86
2022/08/14 06:32:45;;;;;;;1.92;1.63;;;26.20;49.40;;;;;;5020313;28;87327;-86
2022/08/14 06:35:19;;;;;;;1.50;1.38;;;26.20;49.40;;;;;;5019727;28;87161;-86
2022/08/14 06:37:45;;;;;;;2.17;1.58;;;26.20;49.30;;;;;;5018102;28;91479;-86
2022/08/14 06:40:13;;;;;;;1.80;1.55;;;26.20;49.50;;;;;;5020285;28;87765;-86
2022/08/14 06:42:40;;;;;;;1.70;1.60;;;26.20;49.30;;;;;;5020297;28;87476;-86
2022/08/14 06:45:07;;;;;;;1.48;1.38;;;26.20;49.50;;;;;;5019997;28;87083;-86
2022/08/14 06:47:37;;;;;;;2.15;1.27;;;26.20;49.40;;;;;;5016370;28;92341;-83
2022/08/14 06:50:04;;;;;;;4.78;2.40;;;26.30;49.20;;;;;;5018035;28;89348;-82
2022/08/14 06:52:30;;;;;;;5.60;2.88;;;26.30;46.40;;;;;;5018974;28;87323;-83
2022/08/14 06:54:56;;;;;;;7.78;3.25;;;26.20;44.50;;;;;;5018294;28;86995;-82
2022/08/14 06:57:22;;;;;;;6.75;3.20;;;26.20;44.30;;;;;;5017403;28;92026;-85
2022/08/14 06:59:48;;;;;;;5.18;3.55;;;26.30;44.00;;;;;;5033824;28;90229;-86
2022/08/14 07:07:43;;;;;;;6.68;3.30;;;26.20;43.50;;;;;;5019976;28;87493;-87
2022/08/14 07:10:11;;;;;;;3.42;2.90;;;26.20;43.60;;;;;;5018459;28;88313;-86
2022/08/14 07:12:37;;;;;;;7.50;3.20;;;26.20;43.30;;;;;;5017927;28;88284;-86
2022/08/14 07:15:04;;;;;;;7.43;3.00;;;26.20;42.50;;;;;;5018672;28;90530;-86
2022/08/14 07:17:30;;;;;;;6.10;2.80;;;26.20;42.50;;;;;;5019877;28;90550;-85
2022/08/14 07:19:56;;;;;;;6.72;3.53;;;26.10;42.80;;;;;;5019119;28;91427;-87
2022/08/14 07:22:21;;;;;;;5.25;2.75;;;26.20;43.30;;;;;;5017523;28;86945;-87
2022/08/14 07:24:47;;;;;;;5.82;2.80;;;26.20;43.40;;;;;;5020071;28;87307;-86
2022/08/14 07:27:13;;;;;;;7.45;3.60;;;26.20;43.40;;;;;;5018924;28;88529;-87
2022/08/14 07:29:38;;;;;;;3.95;3.00;;;26.20;43.30;;;;;;5018504;28;90901;-87
2022/08/14 07:32:04;;;;;;;5.25;2.90;;;26.20;43.60;;;;;;5019297;28;87337;-87
2022/08/14 07:34:30;;;;;;;4.70;3.00;;;26.30;43.70;;;;;;5018717;28;86910;-87
2022/08/14 07:36:55;;;;;;;4.32;3.13;;;26.20;43.90;;;;;;5015748;28;91306;-88
2022/08/14 07:39:21;;;;;;;6.45;3.00;;;26.20;44.00;;;;;;5017972;28;89655;-88
2022/08/14 07:41:47;;;;;;;9.32;3.22;;;26.20;44.00;;;;;;5036935;28;87819;-88
2022/08/14 07:44:13;;;;;;;6.30;2.75;;;26.20;43.90;;;;;;5035041;28;87433;-87
2022/08/14 07:46:39;;;;;;;5.00;2.90;;;26.20;43.90;;;;;;5036140;28;88578;-88
2022/08/14 07:49:06;;;;;;;7.82;3.22;;;26.30;43.90;;;;;;5035693;28;87652;-89
2022/08/14 07:51:40;;;;;;;72.32;15.57;;;26.20;43.60;;;;;;5018659;28;87505;-88
2022/08/14 07:54:06;;;;;;;68.03;14.55;;;26.20;43.60;;;;;;4972492;28;89249;-87
2022/08/14 07:56:32;;;;;;;82.55;15.70;;;26.30;43.40;;;;;;4966742;28;92314;-89
2022/08/14 07:58:57;;;;;;;58.22;13.98;;;26.30;43.20;;;;;;5034335;28;87677;-88
2022/08/14 08:01:25;;;;;;;68.55;12.98;;;26.30;43.20;;;;;;5034813;28;88145;-89
2022/08/14 08:03:50;;;;;;;58.72;13.00;;;26.20;43.40;;;;;;5034995;28;90871;-86
2022/08/14 08:06:16;;;;;;;79.85;18.45;;;26.20;43.80;;;;;;5035216;28;87675;-87
2022/08/14 08:08:45;;;;;;;136.95;36.40;;;26.20;44.10;;;;;;5035947;28;88068;-86
2022/08/14 08:11:11;;;;;;;307.50;67.75;;;26.20;43.70;;;;;;5034046;28;87459;-88
2022/08/14 08:13:41;;;;;;;197.30;47.13;;;26.20;44.40;;;;;;5017568;28;89609;-86
2022/08/14 08:16:07;;;;;;;270.08;61.85;;;26.20;44.30;;;;;;5033675;28;87672;-87
2022/08/14 08:18:34;;;;;;;254.25;59.47;;;26.20;44.80;;;;;;5033244;28;88949;-87
2022/08/14 08:21:00;;;;;;;243.07;58.95;;;26.20;44.90;;;;;;5016352;28;87519;-86
2022/08/14 08:23:28;;;;;;;223.50;55.10;;;26.20;45.10;;;;;;5015673;28;90235;-86
2022/08/14 08:25:54;;;;;;;190.52;49.30;;;26.20;45.20;;;;;;5015346;28;92113;-84
2022/08/14 08:28:22;;;;;;;151.45;41.47;;;26.20;45.20;;;;;;5017920;28;89665;-85
2022/08/14 08:30:56;;;;;;;177.45;44.53;;;26.20;45.10;;;;;;5017221;28;87251;-84
2022/08/14 08:33:26;;;;;;;166.60;41.85;;;26.20;47.00;;;;;;5017078;28;87531;-85
2022/08/14 08:35:53;;;;;;;120.63;34.83;;;26.20;48.60;;;;;;5015184;28;91770;-85
2022/08/14 08:38:22;;;;;;;110.85;32.72;;;26.20;48.00;;;;;;5016127;28;90324;-84
2022/08/14 08:40:50;;;;;;;109.32;32.25;;;26.20;46.60;;;;;;5017204;28;87139;-87
2022/08/14 08:43:32;;;;;;;108.40;31.35;;;26.30;47.30;;;;;;5019182;28;87365;-86
2022/08/14 08:46:09;;;;;;;116.65;32.03;;;26.30;47.70;;;;;;5015869;28;90531;-86
2022/08/14 08:48:55;;;;;;;92.72;28.75;;;26.30;49.10;;;;;;5016316;28;91409;-86
2022/08/14 08:51:25;;;;;;;79.30;24.10;;;26.40;49.60;;;;;;5015496;28;88354;-85
2022/08/14 08:54:02;;;;;;;84.20;28.13;;;26.40;49.30;;;;;;5032878;28;89229;-85
2022/08/14 08:56:39;;;;;;;85.65;26.42;;;26.60;51.60;;;;;;5016823;28;88611;-86
2022/08/14 08:59:24;;;;;;;87.50;26.05;;;26.70;51.30;;;;;;5016728;28;87152;-85
2022/08/14 09:01:58;;;;;;;75.95;24.90;;;26.80;50.80;;;;;;5016977;28;87062;-85
2022/08/14 09:04:26;;;;;;;73.78;24.10;;;26.80;50.50;;;;;;5013069;28;89834;-87
2022/08/14 09:06:52;;;;;;;70.78;21.83;;;26.90;50.30;;;;;;5014214;28;89124;-84
2022/08/14 09:09:26;;;;;;;61.88;22.20;;;26.90;50.00;;;;;;5014077;28;87559;-85
2022/08/14 09:11:54;;;;;;;59.53;21.15;;;26.90;50.60;;;;;;5014385;28;86945;-84
2022/08/14 09:14:23;;;;;;;54.30;19.08;;;26.90;50.00;;;;;;5016181;28;87677;-85
2022/08/14 09:16:50;;;;;;;54.15;18.73;;;26.90;49.90;;;;;;5017221;28;89056;-85
2022/08/14 09:19:17;;;;;;;42.95;16.83;;;26.90;49.60;;;;;;5017363;28;89313;-85
2022/08/14 09:21:43;;;;;;;45.10;17.00;;;26.90;49.50;;;;;;5017499;28;87133;-85
2022/08/14 09:24:09;;;;;;;41.05;15.63;;;26.90;49.60;;;;;;5018226;28;90184;-85
2022/08/14 09:26:36;;;;;;;35.72;13.68;;;27.00;49.60;;;;;;5000064;28;90507;-85
2022/08/14 09:29:06;;;;;;;33.92;14.52;;;27.00;49.30;;;;;;5015883;28;88320;-82
2022/08/14 09:31:33;;;;;;;38.80;13.30;;;27.00;49.10;;;;;;5018472;28;87037;-86
2022/08/14 09:34:29;;;;;;;34.80;13.15;;;27.00;49.00;;;;;;4996127;28;88797;-85
2022/08/14 09:37:14;;;;;;;35.42;12.40;;;27.00;49.50;;;;;;5025633;27;91674;-85
2022/08/14 09:39:52;;;;;;;26.88;11.82;;;27.00;48.80;;;;;;5025681;27;88318;-86
2022/08/14 09:42:38;;;;;;;27.15;12.20;;;27.00;48.90;;;;;;5026138;28;87948;-83
2022/08/14 09:45:17;;;;;;;26.88;10.20;;;26.90;48.70;;;;;;5024917;28;88907;-84
2022/08/14 09:47:49;;;;;;;23.52;9.10;;;26.80;48.40;;;;;;5011282;28;91747;-85
2022/08/14 09:50:26;;;;;;;24.40;10.02;;;26.70;47.90;;;;;;5028415;28;88856;-85
2022/08/14 09:52:56;;;;;;;21.27;10.05;;;26.80;49.40;;;;;;5025720;27;87028;-86
2022/08/14 09:55:25;;;;;;;22.67;9.45;;;26.90;49.20;;;;;;5023594;27;90676;-86
2022/08/14 09:57:51;;;;;;;21.50;8.75;;;27.00;49.00;;;;;;5025684;27;87637;-87
2022/08/14 10:00:21;;;;;;;18.58;8.85;;;27.00;48.70;;;;;;5026576;27;88150;-87
2022/08/14 10:03:01;;;;;;;18.17;8.63;;;27.10;48.70;;;;;;5009979;28;87771;-88
2022/08/14 10:05:33;;;;;;;20.52;8.02;;;27.10;49.20;;;;;;5026320;28;87798;-87
2022/08/14 10:08:00;;;;;;;17.52;8.25;;;27.10;48.80;;;;;;5028548;27;89488;-88
2022/08/14 10:10:27;;;;;;;17.38;7.10;;;26.90;49.00;;;;;;5027869;28;89202;-86
2022/08/14 10:12:54;;;;;;;19.08;7.57;;;26.90;48.90;;;;;;5018677;28;86968;-86
2022/08/14 10:15:21;;;;;;;14.32;6.70;;;26.80;49.40;;;;;;5018534;28;90186;-86
2022/08/14 10:17:48;;;;;;;16.08;8.00;;;26.70;49.70;;;;;;5035052;28;90495;-86
2022/08/14 10:20:21;;;;;;;15.80;7.15;;;26.70;49.70;;;;;;5018737;28;87405;-85
2022/08/14 10:22:48;;;;;;;17.83;7.13;;;26.70;50.90;;;;;;5020152;28;86907;-86
2022/08/14 10:25:16;;;;;;;19.63;7.80;;;26.70;50.10;;;;;;5017338;28;89093;-85
2022/08/14 10:27:45;;;;;;;15.85;7.50;;;26.70;50.40;;;;;;5018793;28;87657;-85
2022/08/14 10:30:16;;;;;;;15.00;6.95;;;26.70;50.70;;;;;;5018160;28;88283;-86
2022/08/14 10:32:48;;;;;;;15.85;7.78;;;26.70;50.70;;;;;;5017767;28;87956;-85
2022/08/14 10:35:19;;;;;;;17.15;7.22;;;26.60;50.50;;;;;;5016123;28;89999;-85
2022/08/14 10:37:48;;;;;;;17.35;7.45;;;26.60;51.00;;;;;;5015882;28;87557;-84
2022/08/14 10:40:25;;;;;;;14.15;6.95;;;26.60;51.00;;;;;;5015173;28;91391;-86
2022/08/14 10:42:50;;;;;;;13.48;6.72;;;26.70;51.60;;;;;;5016432;28;86937;-86
2022/08/14 10:45:19;;;;;;;17.00;7.22;;;26.70;51.40;;;;;;5018003;28;87469;-84
2022/08/14 10:47:45;;;;;;;18.40;7.00;;;26.70;51.80;;;;;;5018824;28;88414;-86
2022/08/14 10:50:12;;;;;;;20.85;7.38;;;26.70;51.50;;;;;;5019479;28;87522;-86
2022/08/14 10:52:38;;;;;;;14.70;6.60;;;26.70;51.90;;;;;;5019264;28;87424;-85
2022/08/14 10:55:13;;;;;;;19.63;7.30;;;26.70;52.20;;;;;;5017317;28;88562;-84
2022/08/14 10:57:53;;;;;;;17.38;7.28;;;26.70;51.80;;;;;;5018547;28;89581;-84
2022/08/14 11:00:25;;;;;;;15.77;7.28;;;26.70;52.20;;;;;;5019118;28;88516;-86
2022/08/14 11:03:08;;;;;;;12.90;6.50;;;26.60;52.30;;;;;;5018073;28;87569;-85
2022/08/14 11:05:42;;;;;;;14.98;6.38;;;26.60;52.50;;;;;;5017799;28;87486;-85
2022/08/14 11:08:08;;;;;;;13.35;6.80;;;26.70;53.20;;;;;;5018173;28;91789;-84
2022/08/14 11:10:40;;;;;;;13.88;6.78;;;26.90;52.70;;;;;;5019457;28;88063;-86
2022/08/14 11:13:07;;;;;;;15.80;6.88;;;27.00;52.50;;;;;;5018834;28;87433;-86
2022/08/14 11:15:33;;;;;;;15.02;6.75;;;27.10;52.60;;;;;;5019045;28;86774;-85
2022/08/14 11:17:59;;;;;;;15.48;6.95;;;27.20;52.20;;;;;;5019248;28;88095;-85
2022/08/14 11:20:26;;;;;;;18.55;7.22;;;27.30;52.70;;;;;;5019584;28;88280;-85
2022/08/14 11:22:57;;;;;;;14.65;6.60;;;27.30;52.10;;;;;;5018953;28;87816;-85
2022/08/14 11:25:24;;;;;;;14.98;6.65;;;27.40;51.90;;;;;;5016367;28;91256;-86
2022/08/14 11:27:52;;;;;;;13.60;6.25;;;27.40;51.90;;;;;;5018821;28;87419;-86
2022/08/14 11:30:20;;;;;;;12.02;6.38;;;27.40;51.80;;;;;;5018197;28;88249;-87
2022/08/14 11:32:47;;;;;;;17.25;7.15;;;27.40;51.70;;;;;;5034791;28;87466;-86
2022/08/14 11:35:16;;;;;;;15.70;6.60;;;27.40;51.70;;;;;;5019165;28;87961;-86
2022/08/14 11:37:52;;;;;;;13.77;6.53;;;27.40;51.50;;;;;;5017939;28;87795;-85
2022/08/14 11:40:22;;;;;;;14.40;7.22;;;27.40;51.30;;;;;;5018864;28;87828;-86
2022/08/14 11:42:48;;;;;;;;;;;27.50;51.50;;;;;;5018622;28;88181;-84
2022/08/14 11:45:15;;;;;;;15.27;6.00;;;27.40;51.30;;;;;;5019531;28;87212;-84
2022/08/14 11:47:41;;;;;;;13.77;6.13;;;27.40;51.50;;;;;;5018406;28;89060;-84
2022/08/14 11:50:23;;;;;;;15.20;6.75;;;27.50;51.80;;;;;;5054974;27;88325;-84
2022/08/14 11:52:49;;;;;;;13.25;5.88;;;27.50;51.70;;;;;;5056592;27;87277;-85
2022/08/14 11:55:15;;;;;;;12.52;5.95;;;27.40;51.60;;;;;;5038554;27;89113;-85
2022/08/14 11:57:42;;;;;;;13.57;5.70;;;27.40;51.60;;;;;;5055242;27;88822;-84
2022/08/14 12:00:11;;;;;;;13.38;5.95;;;27.50;51.60;;;;;;5055599;27;88324;-85
2022/08/14 12:02:48;;;;;;;;;;;27.40;51.60;;;;;;5056111;27;86927;-84
2022/08/14 12:05:14;;;;;;;9.75;5.40;;;27.50;51.80;;;;;;5057861;27;87253;-85
2022/08/14 12:07:49;;;;;;;12.98;6.07;;;27.50;51.60;;;;;;5055565;27;88537;-85
2022/08/14 12:10:19;;;;;;;12.00;5.88;;;27.50;51.70;;;;;;5053937;27;91323;-84
2022/08/14 12:12:44;;;;;;;11.60;5.80;;;27.50;51.70;;;;;;5055574;27;88378;-85
2022/08/14 12:15:11;;;;;;;13.40;6.88;;;27.50;51.80;;;;;;5055213;27;87390;-85
2022/08/14 12:17:50;;;;;;;8.38;5.00;;;27.50;51.70;;;;;;5038918;27;88323;-83
2022/08/14 12:20:16;;;;;;;10.13;4.82;;;27.50;51.80;;;;;;5051317;27;87294;-84
2022/08/14 12:22:45;;;;;;;10.93;6.32;;;27.50;51.70;;;;;;5018164;28;86938;-84
2022/08/14 12:25:19;;;;;;;10.82;5.80;;;27.50;51.60;;;;;;5017951;28;87406;-84
2022/08/14 12:27:50;;;;;;;10.10;5.25;;;27.50;51.70;;;;;;5018535;28;88199;-84
2022/08/14 12:30:39;;;;;;;9.95;5.18;;;27.50;51.70;;;;;;5018545;28;87274;-83
2022/08/14 12:33:07;;;;;;;11.57;5.05;;;27.50;51.60;;;;;;5015694;28;87130;-84
2022/08/14 12:35:44;;;;;;;11.73;5.37;;;27.50;51.50;;;;;;5017360;28;87446;-84
2022/08/14 12:38:11;;;;;;;9.00;4.97;;;27.30;50.00;;;;;;5016167;28;89350;-84
2022/08/14 12:40:47;;;;;;;8.88;4.93;;;27.20;48.10;;;;;;5016646;28;89768;-84
2022/08/14 12:43:18;;;;;;;9.07;5.10;;;27.00;47.60;;;;;;5017249;28;86911;-84
2022/08/14 12:45:53;;;;;;;9.40;4.38;;;26.90;46.90;;;;;;5015724;28;89651;-85
2022/08/14 12:48:21;;;;;;;11.43;5.43;;;26.80;46.50;;;;;;5018353;28;88273;-83
2022/08/14 12:50:51;;;;;;;9.30;4.93;;;26.70;45.70;;;;;;5021536;28;86946;-83
2022/08/14 12:53:18;;;;;;;7.57;4.53;;;26.70;45.20;;;;;;5020908;28;87473;-84
2022/08/14 12:55:45;;;;;;;8.77;4.50;;;26.60;44.70;;;;;;5020743;28;86835;-83
2022/08/14 12:58:11;;;;;;;9.05;4.60;;;26.60;44.20;;;;;;5020585;28;87818;-83
2022/08/14 13:00:49;;;;;;;7.43;4.72;;;26.50;43.70;;;;;;5021086;28;87426;-84
2022/08/14 13:03:25;;;;;;;10.07;5.00;;;26.40;43.20;;;;;;5019816;28;88591;-84
2022/08/14 13:05:51;;;;;;;6.55;4.05;;;26.40;43.10;;;;;;5035386;28;92545;-83
2022/08/14 13:08:17;;;;;;;9.50;4.88;;;26.30;42.80;;;;;;5018468;28;90057;-84